Time;durP1;ratioP1;P1;durP2;ratioP2;P2;SDS_P1;SDS_P2;PMS_P1;PMS_P2;Temp;Humidity;BMP_temperature;BMP_pressure;BME280_temperature;BME280_humidity;BME280_pressure;Samples;Min_cycle;Max_cycle;Signal;HPM_P1;HPM_P2
2023/03/24 00:01:13;;;;;;;8.13;5.70;;;15.20;98.90;;;;;;5031253;28;20231;-77
2023/03/24 00:03:44;;;;;;;5.60;5.07;;;15.10;98.90;;;;;;5031110;28;20219;-77
2023/03/24 00:06:13;;;;;;;4.85;4.47;;;15.10;98.90;;;;;;5030789;28;20229;-77
2023/03/24 00:08:42;;;;;;;6.82;5.15;;;15.10;98.90;;;;;;5030365;28;20219;-77
2023/03/24 00:11:13;;;;;;;5.38;4.97;;;15.10;99.10;;;;;;5030730;28;20234;-77
2023/03/24 00:13:42;;;;;;;9.57;5.57;;;15.10;99.30;;;;;;5030692;28;20233;-77
2023/03/24 00:16:15;;;;;;;6.03;5.38;;;15.10;99.60;;;;;;5030745;28;20238;-77
2023/03/24 00:18:44;;;;;;;5.93;5.38;;;15.10;99.50;;;;;;5030441;28;20214;-77
2023/03/24 00:21:12;;;;;;;6.10;4.97;;;15.00;99.90;;;;;;5030285;28;20227;-77
2023/03/24 00:23:41;;;;;;;7.28;5.32;;;15.00;99.60;;;;;;5030447;28;20210;-77
2023/03/24 00:26:14;;;;;;;5.80;5.30;;;14.90;99.80;;;;;;5030501;28;20218;-77
2023/03/24 00:28:46;;;;;;;5.15;4.50;;;14.80;99.90;;;;;;5030342;28;20226;-77
2023/03/24 00:31:15;;;;;;;7.63;5.57;;;14.80;99.90;;;;;;5030930;28;20230;-82
2023/03/24 00:33:49;;;;;;;7.90;5.90;;;14.80;99.90;;;;;;5030055;28;20226;-82
2023/03/24 00:36:19;;;;;;;6.65;5.50;;;14.70;99.90;;;;;;5030535;28;20210;-82
2023/03/24 00:38:48;;;;;;;5.60;5.07;;;14.70;99.90;;;;;;5028776;28;20313;-82
2023/03/24 00:41:19;;;;;;;10.55;6.03;;;14.60;99.90;;;;;;5030786;28;20314;-82
2023/03/24 00:43:50;;;;;;;7.43;6.72;;;14.60;99.90;;;;;;5030350;28;20202;-82
2023/03/24 00:46:27;;;;;;;9.75;7.45;;;14.60;99.90;;;;;;5030465;28;20234;-82
2023/03/24 00:49:00;;;;;;;10.57;7.30;;;14.60;99.90;;;;;;5029926;28;20213;-82
2023/03/24 00:51:31;;;;;;;13.75;8.13;;;14.60;99.90;;;;;;5030084;28;20230;-82
2023/03/24 00:54:00;;;;;;;11.07;8.75;;;14.60;99.90;;;;;;5030251;28;20322;-82
2023/03/24 00:56:31;;;;;;;11.40;7.95;;;14.60;99.90;;;;;;5030117;28;20210;-82
2023/03/24 00:59:01;;;;;;;12.07;8.85;;;14.50;99.90;;;;;;5029585;28;20274;-82
2023/03/24 01:01:33;;;;;;;10.13;8.82;;;14.50;99.90;;;;;;5032316;28;20244;-82
2023/03/24 01:04:04;;;;;;;13.48;10.75;;;14.50;99.90;;;;;;5032618;28;20213;-82
2023/03/24 01:06:35;;;;;;;11.98;9.40;;;14.50;99.90;;;;;;5032627;28;20214;-82
2023/03/24 01:09:05;;;;;;;12.70;9.80;;;14.50;99.90;;;;;;5031926;28;20210;-82
2023/03/24 01:11:38;;;;;;;12.20;9.60;;;14.50;99.90;;;;;;5032580;28;20312;-82
2023/03/24 01:14:10;;;;;;;13.00;9.40;;;14.50;99.90;;;;;;5031960;28;20230;-82
2023/03/24 01:16:38;;;;;;;11.93;10.35;;;14.50;99.90;;;;;;5032027;28;20202;-82
2023/03/24 01:19:08;;;;;;;12.30;10.55;;;14.50;99.90;;;;;;5032262;28;20202;-82
2023/03/24 01:21:37;;;;;;;13.52;10.38;;;14.40;99.90;;;;;;5032087;28;20264;-82
2023/03/24 01:24:06;;;;;;;14.27;10.95;;;14.40;99.90;;;;;;5032339;28;20202;-83
2023/03/24 01:26:35;;;;;;;12.32;11.13;;;14.50;99.90;;;;;;5032307;28;20269;-82
2023/03/24 01:29:04;;;;;;;11.13;10.00;;;14.40;99.90;;;;;;5031695;28;20218;-78
2023/03/24 01:31:35;;;;;;;12.40;10.48;;;14.40;99.90;;;;;;5032191;28;20249;-78
2023/03/24 01:34:03;;;;;;;9.98;9.07;;;14.40;99.90;;;;;;5031981;28;20261;-78
2023/03/24 01:36:32;;;;;;;11.48;9.50;;;14.40;99.90;;;;;;5033570;28;20206;-78
2023/03/24 01:39:00;;;;;;;13.05;9.68;;;14.40;99.90;;;;;;5034477;28;20245;-78
2023/03/24 01:41:36;;;;;;;12.80;11.07;;;14.40;99.90;;;;;;5035741;28;20235;-78
2023/03/24 01:44:30;;;;;;;9.48;8.55;;;14.40;99.90;;;;;;5035971;28;20293;-78
2023/03/24 01:47:00;;;;;;;12.70;9.40;;;14.40;99.90;;;;;;5035549;28;20210;-78
2023/03/24 01:49:33;;;;;;;9.32;8.43;;;14.40;99.90;;;;;;5036055;28;20253;-78
2023/03/24 01:52:05;;;;;;;12.90;8.25;;;14.40;99.90;;;;;;5035757;28;20282;-78
2023/03/24 01:54:36;;;;;;;9.77;8.73;;;14.40;99.90;;;;;;5035274;28;20223;-78
2023/03/24 01:57:08;;;;;;;10.30;9.30;;;14.40;99.90;;;;;;5035137;28;20249;-78
2023/03/24 01:59:41;;;;;;;18.23;9.05;;;14.40;99.90;;;;;;5035922;28;20210;-78
2023/03/24 02:02:12;;;;;;;12.95;9.32;;;14.40;99.90;;;;;;5035581;28;20225;-82
2023/03/24 02:04:44;;;;;;;9.10;8.20;;;14.40;99.90;;;;;;5035567;28;20207;-82
2023/03/24 02:07:18;;;;;;;10.43;9.38;;;14.40;99.90;;;;;;5034853;28;20207;-78
2023/03/24 02:09:47;;;;;;;10.05;9.05;;;14.30;99.90;;;;;;5035541;28;20230;-78
2023/03/24 02:12:17;;;;;;;9.25;8.35;;;14.40;99.90;;;;;;5035905;28;20206;-78
2023/03/24 02:14:45;;;;;;;9.30;8.48;;;14.30;99.90;;;;;;5035148;28;20218;-78
2023/03/24 02:17:34;;;;;;;23.00;8.02;;;14.30;99.90;;;;;;5034667;28;20202;-78
2023/03/24 02:20:47;;;;;;;9.45;8.55;;;14.30;99.90;;;;;;5035288;28;20226;-78
2023/03/24 02:23:49;;;;;;;9.60;8.73;;;14.30;99.90;;;;;;5034742;28;20261;-78
2023/03/24 02:26:47;;;;;;;9.98;8.98;;;14.30;99.90;;;;;;5035289;28;20266;-78
2023/03/24 02:30:05;;;;;;;8.63;7.55;;;14.30;99.90;;;;;;5035167;28;20218;-78
2023/03/24 02:33:10;;;;;;;10.70;7.60;;;14.20;99.90;;;;;;5035205;28;20274;-77
2023/03/24 02:36:11;;;;;;;17.48;7.78;;;14.20;99.90;;;;;;5034871;28;20198;-77
2023/03/24 02:39:21;;;;;;;8.27;7.57;;;14.20;99.90;;;;;;5011156;28;20264;-78
2023/03/24 02:41:55;;;;;;;9.20;8.30;;;14.20;99.90;;;;;;5034701;28;20312;-78
2023/03/24 02:44:30;;;;;;;8.30;7.50;;;14.10;99.90;;;;;;5034998;28;20279;-78
2023/03/24 02:47:05;;;;;;;8.80;7.90;;;14.20;99.90;;;;;;5033701;28;20206;-78
2023/03/24 02:49:42;;;;;;;8.68;7.85;;;14.20;99.90;;;;;;5033350;28;20228;-78
2023/03/24 02:52:20;;;;;;;8.35;7.55;;;14.20;99.90;;;;;;5034050;28;20256;-78
2023/03/24 02:54:58;;;;;;;8.95;7.82;;;14.10;99.90;;;;;;5034475;28;20313;-78
2023/03/24 02:57:32;;;;;;;10.90;8.00;;;14.10;99.90;;;;;;5033882;28;20285;-78
2023/03/24 03:00:08;;;;;;;7.28;6.78;;;14.10;99.90;;;;;;5034428;28;20221;-78
2023/03/24 03:02:42;;;;;;;8.63;7.05;;;14.10;99.90;;;;;;5034357;28;20206;-78
2023/03/24 03:05:15;;;;;;;9.98;9.00;;;14.10;99.90;;;;;;5034313;28;20290;-78
2023/03/24 03:07:44;;;;;;;8.50;6.85;;;14.10;99.90;;;;;;5034220;28;20301;-78
2023/03/24 03:10:17;;;;;;;6.63;6.07;;;14.20;99.90;;;;;;5034336;28;20254;-78
2023/03/24 03:12:48;;;;;;;7.90;6.53;;;14.10;99.90;;;;;;5034008;28;20267;-78
2023/03/24 03:15:23;;;;;;;8.35;7.65;;;14.10;99.90;;;;;;5033743;28;20214;-78
2023/03/24 03:17:57;;;;;;;16.42;10.27;;;14.10;99.90;;;;;;5033929;28;20237;-78
2023/03/24 03:20:33;;;;;;;12.15;10.88;;;14.10;99.90;;;;;;5033961;28;20252;-78
2023/03/24 03:23:07;;;;;;;14.88;12.57;;;14.10;99.90;;;;;;5033924;28;20276;-78
2023/03/24 03:25:41;;;;;;;15.13;11.82;;;14.10;99.90;;;;;;5033679;28;20237;-78
2023/03/24 03:28:11;;;;;;;9.32;8.43;;;14.10;99.90;;;;;;5033214;28;20209;-82
2023/03/24 03:30:43;;;;;;;12.93;11.50;;;14.10;99.90;;;;;;5033925;28;20242;-82
2023/03/24 03:33:23;;;;;;;16.02;11.70;;;14.10;99.90;;;;;;5033908;28;20262;-82
2023/03/24 03:35:56;;;;;;;13.75;12.30;;;14.10;99.90;;;;;;5033485;28;20334;-82
2023/03/24 03:38:32;;;;;;;18.40;12.85;;;14.10;99.90;;;;;;5031925;28;20234;-82
2023/03/24 03:41:04;;;;;;;13.43;11.77;;;14.10;99.90;;;;;;5033608;28;20230;-82
2023/03/24 03:43:34;;;;;;;12.57;11.38;;;14.10;99.90;;;;;;5033367;28;20198;-82
2023/03/24 03:46:05;;;;;;;15.38;13.70;;;14.10;99.90;;;;;;5033586;28;20210;-82
2023/03/24 03:48:34;;;;;;;14.38;12.93;;;14.10;99.90;;;;;;5033034;28;20206;-82
2023/03/24 03:51:03;;;;;;;13.07;11.88;;;14.10;99.90;;;;;;5033608;28;20222;-82
2023/03/24 03:53:47;;;;;;;14.57;12.43;;;14.10;99.90;;;;;;5033515;28;20230;-82
2023/03/24 03:56:19;;;;;;;12.82;11.52;;;14.10;99.90;;;;;;5033279;28;20206;-82
2023/03/24 03:58:48;;;;;;;14.63;13.00;;;14.00;99.90;;;;;;5032691;28;20206;-82
2023/03/24 04:01:20;;;;;;;15.20;12.50;;;14.00;99.90;;;;;;5033437;28;20223;-82
2023/03/24 04:04:19;;;;;;;15.02;13.50;;;14.00;99.90;;;;;;5033467;28;20202;-82
2023/03/24 04:06:59;;;;;;;15.93;13.10;;;14.00;99.90;;;;;;5032481;28;20206;-82
2023/03/24 04:09:39;;;;;;;13.35;11.88;;;14.00;99.90;;;;;;5033179;28;20211;-82
2023/03/24 04:12:34;;;;;;;14.32;12.82;;;14.00;99.90;;;;;;5033244;28;20212;-82
2023/03/24 04:15:18;;;;;;;14.27;10.85;;;14.00;99.90;;;;;;5033228;28;20229;-82
2023/03/24 04:18:01;;;;;;;16.95;13.10;;;14.00;99.90;;;;;;5032317;28;20240;-83
2023/03/24 04:20:45;;;;;;;16.10;12.70;;;14.00;99.90;;;;;;5033143;28;20250;-82
2023/03/24 04:23:26;;;;;;;15.00;11.90;;;14.00;99.90;;;;;;5032480;28;20206;-83
2023/03/24 04:26:13;;;;;;;14.48;11.57;;;14.00;99.90;;;;;;5032894;28;20206;-82
2023/03/24 04:28:47;;;;;;;12.23;9.02;;;14.00;99.90;;;;;;5032267;28;20261;-82
2023/03/24 04:31:22;;;;;;;7.47;6.78;;;14.00;99.90;;;;;;5032682;28;20226;-82
2023/03/24 04:33:57;;;;;;;7.75;6.40;;;13.90;99.90;;;;;;5033266;28;20202;-82
2023/03/24 04:36:33;;;;;;;7.70;5.95;;;13.80;99.90;;;;;;5032624;28;20228;-83
2023/03/24 04:39:03;;;;;;;7.07;5.63;;;13.80;99.90;;;;;;5031305;28;20236;-83
2023/03/24 04:41:32;;;;;;;7.85;6.80;;;13.70;99.90;;;;;;5032569;28;20250;-83
2023/03/24 04:44:02;;;;;;;6.57;5.97;;;13.70;99.90;;;;;;5032336;28;20270;-82
2023/03/24 04:46:32;;;;;;;5.20;4.80;;;13.70;99.90;;;;;;5032594;28;20202;-82
2023/03/24 04:49:01;;;;;;;11.30;5.50;;;13.70;99.90;;;;;;5032224;28;20289;-82
2023/03/24 04:51:30;;;;;;;6.07;5.57;;;13.70;99.90;;;;;;5032738;28;20222;-82
2023/03/24 04:53:59;;;;;;;7.38;6.65;;;13.70;99.90;;;;;;5032619;28;20249;-77
2023/03/24 04:56:39;;;;;;;9.23;8.38;;;13.70;99.90;;;;;;5032217;28;20257;-82
2023/03/24 04:59:11;;;;;;;14.02;11.15;;;13.70;99.90;;;;;;5032674;28;20266;-82
2023/03/24 05:01:40;;;;;;;16.02;11.10;;;13.70;99.90;;;;;;5032508;28;20318;-82
2023/03/24 05:04:11;;;;;;;14.55;11.13;;;13.70;99.90;;;;;;5032816;28;20289;-82
2023/03/24 05:06:39;;;;;;;16.38;12.15;;;13.70;99.90;;;;;;5032351;28;20206;-82
2023/03/24 05:09:08;;;;;;;12.48;11.25;;;13.70;99.90;;;;;;5032321;28;20218;-82
2023/03/24 05:11:37;;;;;;;12.45;11.02;;;13.60;99.90;;;;;;5034026;28;20218;-77
2023/03/24 05:14:06;;;;;;;13.32;9.82;;;13.60;99.90;;;;;;5036516;28;20214;-77
2023/03/24 05:16:36;;;;;;;11.35;10.07;;;13.60;99.90;;;;;;5036171;28;20222;-77
2023/03/24 05:19:05;;;;;;;9.73;8.80;;;13.60;99.90;;;;;;5036364;28;20310;-77
2023/03/24 05:21:34;;;;;;;9.60;7.13;;;13.60;99.90;;;;;;5036103;28;20313;-82
2023/03/24 05:24:03;;;;;;;7.60;6.22;;;13.60;99.90;;;;;;5035860;28;20210;-82
2023/03/24 05:26:31;;;;;;;9.43;7.88;;;13.50;99.90;;;;;;5035987;28;20206;-77
2023/03/24 05:29:00;;;;;;;11.77;8.15;;;13.50;99.90;;;;;;5035994;28;20210;-79
2023/03/24 05:31:28;;;;;;;11.55;8.60;;;13.50;99.90;;;;;;5036319;28;20238;-79
2023/03/24 05:33:59;;;;;;;10.95;9.80;;;13.40;99.90;;;;;;5036208;28;20229;-79
2023/03/24 05:36:27;;;;;;;10.35;9.25;;;13.30;99.90;;;;;;5036452;28;20237;-82
2023/03/24 05:38:56;;;;;;;8.95;8.07;;;13.30;99.90;;;;;;5034652;28;20207;-84
2023/03/24 05:41:24;;;;;;;8.77;7.93;;;13.20;99.90;;;;;;5036322;28;20234;-84
2023/03/24 05:43:52;;;;;;;7.72;6.13;;;13.20;99.90;;;;;;5035732;28;20257;-83
2023/03/24 05:46:21;;;;;;;6.57;5.78;;;13.20;99.90;;;;;;5035702;28;20213;-83
2023/03/24 05:48:53;;;;;;;8.88;6.28;;;13.10;99.90;;;;;;5035229;28;20206;-83
2023/03/24 05:51:23;;;;;;;8.23;6.53;;;13.00;99.90;;;;;;5035723;28;20250;-82
2023/03/24 05:53:52;;;;;;;5.78;5.28;;;13.00;99.90;;;;;;5035435;28;20260;-82
2023/03/24 05:56:20;;;;;;;6.93;6.22;;;12.90;99.90;;;;;;5035231;28;20250;-84
2023/03/24 05:58:50;;;;;;;6.22;5.63;;;12.90;99.90;;;;;;5035068;28;20221;-84
2023/03/24 06:01:18;;;;;;;6.50;5.88;;;12.80;99.90;;;;;;5035571;28;20296;-83
2023/03/24 06:03:47;;;;;;;12.13;6.43;;;12.80;99.90;;;;;;5035420;28;20257;-83
2023/03/24 06:06:17;;;;;;;5.55;5.15;;;12.80;99.90;;;;;;5035390;28;20199;-79
2023/03/24 06:08:48;;;;;;;6.13;5.53;;;12.70;99.90;;;;;;5035123;28;20210;-79
2023/03/24 06:11:16;;;;;;;7.70;6.88;;;12.70;99.90;;;;;;5035672;28;20234;-79
2023/03/24 06:13:45;;;;;;;7.85;6.97;;;12.70;99.90;;;;;;5035574;28;20214;-79
2023/03/24 06:16:13;;;;;;;7.90;7.20;;;12.60;99.90;;;;;;5035114;28;20302;-79
2023/03/24 06:18:42;;;;;;;8.20;7.40;;;12.70;99.90;;;;;;5034733;28;20198;-78
2023/03/24 06:21:10;;;;;;;7.72;7.03;;;12.70;99.90;;;;;;5035325;28;20233;-79
2023/03/24 06:23:39;;;;;;;9.48;8.60;;;12.80;99.90;;;;;;5034812;28;20210;-78
2023/03/24 06:26:12;;;;;;;9.43;8.50;;;12.80;99.90;;;;;;5034907;28;20301;-78
2023/03/24 06:28:42;;;;;;;9.18;8.23;;;12.80;99.90;;;;;;5034467;28;20278;-78
2023/03/24 06:31:13;;;;;;;8.75;7.05;;;12.90;99.90;;;;;;5035438;28;20230;-79
2023/03/24 06:33:42;;;;;;;10.05;9.05;;;12.90;99.90;;;;;;5035278;28;20221;-79
2023/03/24 06:36:12;;;;;;;10.07;9.15;;;13.00;99.90;;;;;;5034995;28;20417;-77
2023/03/24 06:38:41;;;;;;;9.10;8.18;;;13.00;99.90;;;;;;5033752;28;20306;-78
2023/03/24 06:41:12;;;;;;;9.05;8.15;;;13.00;99.90;;;;;;5034732;28;20313;-78
2023/03/24 06:43:40;;;;;;;8.60;7.80;;;13.10;99.90;;;;;;5034782;28;20285;-77
2023/03/24 06:46:08;;;;;;;8.40;7.40;;;13.10;99.90;;;;;;5034468;28;20293;-77
2023/03/24 06:48:37;;;;;;;9.27;7.78;;;13.20;99.90;;;;;;5034246;28;20239;-76
2023/03/24 06:51:06;;;;;;;8.10;7.13;;;13.20;99.90;;;;;;5034192;28;20240;-76
2023/03/24 06:53:34;;;;;;;10.30;7.80;;;13.30;99.90;;;;;;5034191;28;20252;-76
2023/03/24 06:56:03;;;;;;;7.40;6.65;;;13.40;99.90;;;;;;5034327;28;20295;-76
2023/03/24 06:58:32;;;;;;;8.85;7.50;;;13.50;99.90;;;;;;5033985;28;20306;-78
2023/03/24 07:01:01;;;;;;;7.10;6.43;;;13.60;99.90;;;;;;5034550;28;20234;-77
2023/03/24 07:03:32;;;;;;;8.80;6.63;;;13.80;99.90;;;;;;5034717;28;20216;-78
2023/03/24 07:06:00;;;;;;;7.60;6.53;;;13.80;99.90;;;;;;5034300;28;20199;-78
2023/03/24 07:08:29;;;;;;;7.45;6.75;;;13.90;99.90;;;;;;5033660;28;20306;-76
2023/03/24 07:11:08;;;;;;;8.27;7.22;;;14.00;99.90;;;;;;5034239;28;20226;-78
2023/03/24 07:13:38;;;;;;;11.40;8.10;;;14.10;99.90;;;;;;5033885;28;20210;-78
2023/03/24 07:16:07;;;;;;;8.68;7.18;;;14.10;99.90;;;;;;5034323;28;20317;-79
2023/03/24 07:18:35;;;;;;;8.32;7.35;;;14.20;99.90;;;;;;5033602;28;20210;-77
2023/03/24 07:21:04;;;;;;;9.10;7.60;;;14.20;99.90;;;;;;5034238;28;20257;-78
2023/03/24 07:23:33;;;;;;;7.13;6.53;;;14.30;99.90;;;;;;5033816;28;20210;-77
2023/03/24 07:26:02;;;;;;;8.90;7.93;;;14.40;99.90;;;;;;5033684;28;20234;-79
2023/03/24 07:28:30;;;;;;;9.27;8.40;;;14.50;99.90;;;;;;5033299;28;20198;-79
2023/03/24 07:31:02;;;;;;;17.42;7.47;;;14.60;99.90;;;;;;5034176;28;20248;-78
2023/03/24 07:33:32;;;;;;;8.30;7.50;;;14.60;99.90;;;;;;5033818;28;20206;-83
2023/03/24 07:36:00;;;;;;;7.88;7.00;;;14.70;99.90;;;;;;5033072;28;20206;-83
2023/03/24 07:38:29;;;;;;;9.57;7.90;;;14.80;99.90;;;;;;5032370;28;20206;-83
2023/03/24 07:40:59;;;;;;;14.13;7.88;;;14.90;99.90;;;;;;5033583;28;20234;-84
2023/03/24 07:43:30;;;;;;;8.20;7.43;;;15.00;99.90;;;;;;5034312;28;20210;-83
2023/03/24 07:46:00;;;;;;;9.45;8.50;;;15.10;99.90;;;;;;5033551;28;20244;-83
2023/03/24 07:48:28;;;;;;;9.00;7.80;;;15.00;99.90;;;;;;5032541;28;20228;-77
2023/03/24 07:50:57;;;;;;;8.05;7.25;;;15.10;99.90;;;;;;5033432;28;20257;-78
2023/03/24 07:53:25;;;;;;;10.55;7.88;;;15.10;99.90;;;;;;5033084;28;20237;-77
2023/03/24 07:55:53;;;;;;;7.88;6.97;;;15.10;99.90;;;;;;5033562;28;20206;-82
2023/03/24 07:58:22;;;;;;;9.98;7.63;;;15.20;99.90;;;;;;5032829;28;20217;-82
2023/03/24 08:00:50;;;;;;;9.23;7.53;;;15.20;99.90;;;;;;5033031;28;20233;-82
2023/03/24 08:03:27;;;;;;;12.10;7.47;;;15.30;99.90;;;;;;5033128;28;20211;-82
2023/03/24 08:05:56;;;;;;;7.90;7.10;;;15.30;99.90;;;;;;5033154;28;20210;-82
2023/03/24 08:08:25;;;;;;;7.85;7.15;;;15.30;99.90;;;;;;5032870;28;20206;-82
2023/03/24 08:10:54;;;;;;;8.25;7.45;;;15.30;99.90;;;;;;5033257;28;20226;-81
2023/03/24 08:13:22;;;;;;;8.13;7.35;;;15.30;99.90;;;;;;5032680;28;20238;-81
2023/03/24 08:15:52;;;;;;;15.45;7.13;;;15.40;99.90;;;;;;5033087;28;20270;-77
2023/03/24 08:18:23;;;;;;;8.55;7.75;;;15.50;99.90;;;;;;5032259;28;20246;-77
2023/03/24 08:20:56;;;;;;;6.75;6.15;;;15.60;99.90;;;;;;5033044;28;20230;-77
2023/03/24 08:23:24;;;;;;;9.68;7.90;;;15.60;99.90;;;;;;5032796;28;20229;-77
2023/03/24 08:25:52;;;;;;;8.50;6.75;;;15.70;99.90;;;;;;5032667;28;20209;-77
2023/03/24 08:28:21;;;;;;;6.32;5.70;;;15.70;99.90;;;;;;5032380;28;20207;-77
2023/03/24 08:30:49;;;;;;;7.18;6.57;;;15.70;99.90;;;;;;5032935;28;20317;-77
2023/03/24 08:33:18;;;;;;;9.40;7.53;;;15.70;99.90;;;;;;5032629;28;20212;-77
2023/03/24 08:35:48;;;;;;;7.68;6.97;;;15.80;99.90;;;;;;5032896;28;20202;-77
2023/03/24 08:38:17;;;;;;;8.60;7.00;;;15.90;99.90;;;;;;5031220;28;20230;-77
2023/03/24 08:40:47;;;;;;;9.68;7.82;;;16.00;99.90;;;;;;5032785;28;20230;-77
2023/03/24 08:43:16;;;;;;;9.23;6.93;;;16.10;99.90;;;;;;5032533;28;20214;-77
2023/03/24 08:45:45;;;;;;;9.18;7.53;;;16.20;99.90;;;;;;5032635;28;20274;-77
2023/03/24 08:48:14;;;;;;;9.55;7.75;;;16.20;99.90;;;;;;5032103;28;20225;-77
2023/03/24 08:50:43;;;;;;;8.15;7.35;;;16.30;99.90;;;;;;5032910;28;20238;-77
2023/03/24 08:53:13;;;;;;;9.57;8.68;;;16.40;99.90;;;;;;5032336;28;20206;-77
2023/03/24 08:55:44;;;;;;;8.98;8.00;;;16.60;99.90;;;;;;5032631;28;20202;-82
2023/03/24 08:58:14;;;;;;;10.48;8.57;;;16.70;99.90;;;;;;5031468;28;20241;-82
2023/03/24 09:00:44;;;;;;;9.85;8.30;;;16.80;99.90;;;;;;5032801;28;20253;-82
2023/03/24 09:03:16;;;;;;;9.80;8.88;;;17.00;99.90;;;;;;5032820;28;20301;-82
2023/03/24 09:05:46;;;;;;;9.43;7.93;;;17.10;99.90;;;;;;5032316;28;20067;-82
2023/03/24 09:08:18;;;;;;;9.85;8.85;;;17.20;99.90;;;;;;5032155;28;20266;-82
2023/03/24 09:10:46;;;;;;;;;;;17.30;99.90;;;;;;5032650;28;20176;-82
2023/03/24 09:13:15;;;;;;;;;;;17.60;99.90;;;;;;5032666;28;19962;-82
2023/03/24 09:15:47;;;;;;;10.85;9.10;;;17.80;99.90;;;;;;5032771;28;20217;-77
2023/03/24 09:18:16;;;;;;;;;;;17.90;99.90;;;;;;5032143;28;20083;-77
2023/03/24 09:20:44;;;;;;;;;;;17.90;99.90;;;;;;5032646;28;19957;-77
2023/03/24 09:23:13;;;;;;;;;;;18.10;99.90;;;;;;5032954;28;19944;-77
2023/03/24 09:25:43;;;;;;;12.90;9.00;;;18.20;99.90;;;;;;5032201;28;19942;-77
2023/03/24 09:28:12;;;;;;;;;;;18.40;99.90;;;;;;5032145;28;19955;-77
2023/03/24 09:30:40;;;;;;;;;;;18.50;99.90;;;;;;5032783;28;19974;-77
2023/03/24 09:33:09;;;;;;;10.25;9.20;;;18.70;99.90;;;;;;5032164;28;20076;-77
2023/03/24 09:35:38;;;;;;;11.25;8.90;;;18.60;99.90;;;;;;5032580;28;20227;-77
2023/03/24 09:38:06;;;;;;;11.05;8.88;;;18.40;99.90;;;;;;5030655;28;20245;-77
2023/03/24 09:40:38;;;;;;;9.20;8.35;;;18.30;99.90;;;;;;5032054;28;20277;-77
2023/03/24 09:43:09;;;;;;;;;;;18.20;99.90;;;;;;5032909;28;20072;-82
2023/03/24 09:45:44;;;;;;;10.30;9.30;;;18.40;99.90;;;;;;5032128;28;20292;-82
2023/03/24 09:48:19;;;;;;;24.30;9.55;;;18.40;99.90;;;;;;5031587;28;20202;-82
2023/03/24 09:50:51;;;;;;;;;;;18.30;99.90;;;;;;5032809;28;20096;-82
2023/03/24 09:53:24;;;;;;;;;;;18.40;99.90;;;;;;5032657;28;19956;-82
2023/03/24 09:55:53;;;;;;;;;;;18.60;99.90;;;;;;5032511;28;20014;-82
2023/03/24 09:58:27;;;;;;;;;;;18.70;99.90;;;;;;5034035;28;19965;-82
2023/03/24 10:00:55;;;;;;;;;;;19.00;99.90;;;;;;5036033;28;20044;-82
2023/03/24 10:03:24;;;;;;;;;;;19.00;99.90;;;;;;5035928;28;19977;-82
2023/03/24 10:05:56;;;;;;;;;;;19.10;99.90;;;;;;5035879;28;19986;-81
2023/03/24 10:08:27;;;;;;;;;;;19.10;99.90;;;;;;5035770;28;20013;-83
2023/03/24 10:11:01;;;;;;;;;;;19.30;99.90;;;;;;5036087;28;20006;-81
2023/03/24 10:13:38;;;;;;;;;;;19.40;99.90;;;;;;5035925;28;19973;-81
2023/03/24 10:16:07;;;;;;;;;;;19.50;99.90;;;;;;5035837;28;19975;-83
2023/03/24 10:18:40;;;;;;;;;;;19.60;99.90;;;;;;5035067;28;19958;-81
2023/03/24 10:21:12;;;;;;;;;;;19.60;99.90;;;;;;5035722;28;19962;-83
2023/03/24 10:23:45;;;;;;;;;;;19.70;99.90;;;;;;5035779;28;19941;-83
2023/03/24 10:26:21;;;;;;;;;;;19.80;99.90;;;;;;5035292;28;19989;-81
2023/03/24 10:28:53;;;;;;;;;;;20.00;99.90;;;;;;5034851;28;19925;-81
2023/03/24 10:31:25;;;;;;;;;;;20.20;99.90;;;;;;5035426;28;20049;-81
2023/03/24 10:33:53;;;;;;;;;;;20.20;99.90;;;;;;5035395;28;20004;-81
2023/03/24 10:36:22;;;;;;;;;;;20.30;99.90;;;;;;5035512;28;20032;-82
2023/03/24 10:38:50;;;;;;;;;;;20.20;99.80;;;;;;5033916;28;20063;-83
2023/03/24 10:41:19;;;;;;;;;;;20.10;99.70;;;;;;5034766;28;20002;-83
2023/03/24 10:43:49;;;;;;;;;;;20.10;99.30;;;;;;5035331;28;19949;-81
2023/03/24 10:46:21;;;;;;;;;;;20.10;99.60;;;;;;5035138;28;19941;-83
2023/03/24 10:48:50;;;;;;;;;;;20.20;99.10;;;;;;5034888;28;19952;-83
2023/03/24 10:51:19;;;;;;;;;;;20.10;99.10;;;;;;5035107;28;19965;-83
2023/03/24 10:53:47;;;;;;;;;;;20.10;98.90;;;;;;5034866;28;19943;-83
2023/03/24 10:56:16;;;;;;;;;;;20.10;98.80;;;;;;5035126;28;19942;-83
2023/03/24 10:58:45;;;;;;;;;;;20.30;98.60;;;;;;5034010;28;19953;-81
2023/03/24 11:01:26;;;;;;;;;;;20.30;98.20;;;;;;5035017;28;19958;-82
2023/03/24 11:04:02;;;;;;;;;;;20.30;98.50;;;;;;5035196;28;19998;-82
2023/03/24 11:06:31;;;;;;;;;;;20.50;98.30;;;;;;5034788;28;19970;-77
2023/03/24 11:09:10;;;;;;;;;;;20.50;98.00;;;;;;5032825;28;20024;-77
2023/03/24 11:11:40;;;;;;;;;;;20.30;97.90;;;;;;5034587;28;19963;-77
2023/03/24 11:14:17;;;;;;;;;;;20.20;97.90;;;;;;5034773;28;19992;-76
2023/03/24 11:16:46;;;;;;;;;;;20.10;98.40;;;;;;5034326;28;20031;-76
2023/03/24 11:19:18;;;;;;;;;;;20.30;98.40;;;;;;5034457;28;19963;-76
2023/03/24 11:21:50;;;;;;;;;;;20.50;98.00;;;;;;5033853;28;19978;-76
2023/03/24 11:24:19;;;;;;;;;;;20.60;97.60;;;;;;5034307;28;19943;-77
2023/03/24 11:26:52;;;;;;;;;;;20.70;97.50;;;;;;5033687;28;19944;-77
2023/03/24 11:29:23;;;;;;;;;;;20.80;97.00;;;;;;5034030;28;19944;-77
2023/03/24 11:31:55;;;;;;;;;;;20.90;97.20;;;;;;5035027;28;20057;-77
2023/03/24 11:34:24;;;;;;;;;;;21.00;97.10;;;;;;5034133;28;19953;-82
2023/03/24 11:36:54;;;;;;;;;;;21.20;96.70;;;;;;5033787;28;19983;-77
2023/03/24 11:39:23;;;;;;;;;;;21.30;96.10;;;;;;5033029;28;19993;-77
2023/03/24 11:41:58;;;;;;;;;;;21.50;96.30;;;;;;5034026;28;19925;-82
2023/03/24 11:44:27;;;;;;;;;;;21.50;96.20;;;;;;5034482;28;19945;-82
2023/03/24 11:46:57;;;;;;;;;;;21.60;95.70;;;;;;5033554;28;20019;-82
2023/03/24 11:49:27;;;;;;;;;;;21.50;95.60;;;;;;5034077;28;19996;-82
2023/03/24 11:51:55;;;;;;;;;;;21.40;95.70;;;;;;5033731;28;20010;-82
2023/03/24 11:54:27;;;;;;;;;;;21.40;95.60;;;;;;5034142;28;20005;-76
2023/03/24 11:57:00;;;;;;;;;;;21.00;95.70;;;;;;5033167;28;19950;-76
2023/03/24 11:59:33;;;;;;;;;;;20.80;95.80;;;;;;5033882;28;19970;-77
2023/03/24 12:02:10;;;;;;;;;;;20.90;95.90;;;;;;5033759;28;20026;-76
2023/03/24 12:04:44;;;;;;;;;;;20.90;95.70;;;;;;5033992;28;19979;-76
2023/03/24 12:07:27;;;;;;;;;;;20.90;95.80;;;;;;5032995;28;19994;-76
2023/03/24 12:09:59;;;;;;;;;;;21.00;95.80;;;;;;5032813;28;19946;-77
2023/03/24 12:12:32;;;;;;;;;;;21.10;95.70;;;;;;5033804;28;19939;-76
2023/03/24 12:15:13;;;;;;;;;;;21.30;95.40;;;;;;5033425;28;19943;-76
2023/03/24 12:18:00;;;;;;;;;;;21.50;95.50;;;;;;5033208;28;19991;-77
2023/03/24 12:20:31;;;;;;;;;;;21.70;95.20;;;;;;5032987;28;19981;-77
2023/03/24 12:23:01;;;;;;;;;;;22.00;95.20;;;;;;5033680;28;19985;-77
2023/03/24 12:25:33;;;;;;;;;;;22.10;94.80;;;;;;5032908;28;19944;-77
2023/03/24 12:28:07;;;;;;;;;;;22.00;94.40;;;;;;5032587;28;19945;-77
2023/03/24 12:30:37;;;;;;;;;;;21.90;94.20;;;;;;5033232;28;19965;-82
2023/03/24 12:33:19;;;;;;;;;;;21.80;94.30;;;;;;5033060;28;20008;-82
2023/03/24 12:35:56;;;;;;;;;;;21.90;94.10;;;;;;5033496;28;20038;-82
2023/03/24 12:38:34;;;;;;;;;;;21.90;94.00;;;;;;5032178;28;19959;-82
2023/03/24 12:41:17;;;;;;;;;;;21.90;93.80;;;;;;5033307;28;19999;-82
2023/03/24 12:43:50;;;;;;;;;;;21.80;94.00;;;;;;5033050;28;19950;-82
2023/03/24 12:46:29;;;;;;;;;;;21.90;94.00;;;;;;5033128;28;19983;-82
2023/03/24 12:49:28;;;;;;;;;;;22.00;93.70;;;;;;5032898;28;20002;-82
2023/03/24 12:52:07;;;;;;;;;;;22.00;93.80;;;;;;5032231;28;20005;-81
2023/03/24 12:54:39;;;;;;;;;;;21.90;93.90;;;;;;5033116;28;20049;-82
2023/03/24 12:57:08;;;;;;;;;;;22.00;94.00;;;;;;5032233;28;19971;-82
2023/03/24 12:59:39;;;;;;;;;;;22.00;93.90;;;;;;5032837;28;19955;-82
2023/03/24 13:02:12;;;;;;;;;;;22.10;93.90;;;;;;5032610;28;19946;-82
2023/03/24 13:04:42;;;;;;;;;;;22.10;93.60;;;;;;5033246;28;19943;-82
2023/03/24 13:07:13;;;;;;;;;;;22.10;93.40;;;;;;5032583;28;19943;-82
2023/03/24 13:09:45;;;;;;;;;;;22.00;93.60;;;;;;5033273;28;19980;-82
2023/03/24 13:12:15;;;;;;;;;;;22.10;93.40;;;;;;5033005;28;19939;-82
2023/03/24 13:14:48;;;;;;;;;;;22.20;93.50;;;;;;5032642;28;19953;-82
2023/03/24 13:17:19;;;;;;;;;;;22.20;93.50;;;;;;5032388;28;19968;-82
2023/03/24 13:19:48;;;;;;;;;;;22.10;93.00;;;;;;5032562;28;19966;-82
2023/03/24 13:22:18;;;;;;;;;;;22.10;93.10;;;;;;5032694;28;19982;-78
2023/03/24 13:24:47;;;;;;;;;;;22.00;93.20;;;;;;5032757;28;19946;-77
2023/03/24 13:27:18;;;;;;;;;;;21.80;93.30;;;;;;5031926;28;20011;-77
2023/03/24 13:29:52;;;;;;;;;;;21.70;93.50;;;;;;5032359;28;19943;-77
2023/03/24 13:32:30;;;;;;;;;;;21.70;93.60;;;;;;5033788;28;20040;-77
2023/03/24 13:35:01;;;;;;;;;;;21.60;93.40;;;;;;5036568;28;19954;-77